Time;durP1;ratioP1;P1;durP2;ratioP2;P2;SDS_P1;SDS_P2;PMS_P1;PMS_P2;Temp;Humidity;BMP_temperature;BMP_pressure;BME280_temperature;BME280_humidity;BME280_pressure;Samples;Min_cycle;Max_cycle;Signal;HPM_P1;HPM_P2
2023/12/18 00:01:47;;;;;;;14.17;8.33;;;;;;;6.62;84.12;103021.13;5053740;28;20658;-68
2023/12/18 00:04:14;;;;;;;10.60;8.73;;;;;;;6.71;83.37;103034.00;5054264;28;20317;-68
2023/12/18 00:06:40;;;;;;;9.47;8.43;;;;;;;6.63;83.83;103022.00;5053933;28;20190;-68
2023/12/18 00:09:07;;;;;;;9.00;8.10;;;;;;;6.49;84.12;103035.94;5053869;28;20203;-68
2023/12/18 00:11:33;;;;;;;8.93;8.13;;;;;;;6.43;84.44;103033.56;5054118;28;20187;-68
2023/12/18 00:14:01;;;;;;;12.33;8.27;;;;;;;6.52;83.92;103029.63;5052604;28;20243;-68
2023/12/18 00:16:28;;;;;;;9.60;8.73;;;;;;;6.45;83.43;103025.53;5054047;28;20187;-68
2023/12/18 00:18:54;;;;;;;9.40;8.70;;;;;;;6.37;84.30;103025.84;5053289;28;20217;-68
2023/12/18 00:21:21;;;;;;;8.93;8.07;;;;;;;6.27;84.91;103030.72;5053443;28;20187;-68
2023/12/18 00:23:47;;;;;;;11.97;8.73;;;;;;;6.25;84.24;103034.34;5053664;28;20204;-68
2023/12/18 00:26:14;;;;;;;8.97;8.37;;;;;;;6.15;84.90;103033.06;5053620;28;20245;-68
2023/12/18 00:28:40;;;;;;;12.03;9.60;;;;;;;6.05;84.84;103032.56;5053213;28;20217;-68
2023/12/18 00:31:06;;;;;;;11.97;8.63;;;;;;;6.13;84.21;103026.94;5053287;28;20241;-68
2023/12/18 00:33:33;;;;;;;13.77;9.50;;;;;;;6.16;83.82;103024.13;5053227;28;20197;-68
2023/12/18 00:35:59;;;;;;;14.47;9.63;;;;;;;6.10;83.91;103012.00;5053489;28;20559;-68
2023/12/18 00:38:26;;;;;;;16.17;9.07;;;;;;;6.17;83.02;103010.78;5053565;28;20207;-68
2023/12/18 00:40:52;;;;;;;14.27;10.00;;;;;;;6.20;83.54;103020.41;5053151;28;20187;-68
2023/12/18 00:43:19;;;;;;;10.37;8.20;;;;;;;6.28;82.53;103013.81;5053130;28;20603;-68
2023/12/18 00:45:45;;;;;;;10.37;8.20;;;;;;;6.22;83.16;103014.13;5053384;28;20240;-68
2023/12/18 00:48:12;;;;;;;14.30;9.13;;;;;;;6.15;83.26;103017.97;5053339;28;20560;-68
2023/12/18 00:50:38;;;;;;;11.97;8.27;;;;;;;6.07;83.23;103003.31;5052950;28;20212;-68
2023/12/18 00:53:05;;;;;;;13.27;9.33;;;;;;;6.02;82.88;103002.66;5053002;28;20193;-68
2023/12/18 00:55:31;;;;;;;10.17;9.17;;;;;;;6.01;83.37;103001.78;5053314;28;20187;-68
2023/12/18 00:57:58;;;;;;;12.33;9.67;;;;;;;6.00;83.40;102997.38;5052975;28;20189;-68
2023/12/18 01:00:25;;;;;;;13.10;7.90;;;;;;;6.01;82.84;102996.47;5053065;28;20579;-68
2023/12/18 01:02:52;;;;;;;9.00;8.20;;;;;;;6.00;82.95;102985.91;5053218;28;20181;-68
2023/12/18 01:05:18;;;;;;;10.93;7.97;;;;;;;5.96;82.63;102982.53;5053454;28;20238;-68
2023/12/18 01:07:44;;;;;;;9.73;8.33;;;;;;;5.96;82.46;102974.56;5052851;28;20191;-68
2023/12/18 01:10:11;;;;;;;9.23;8.40;;;;;;;5.89;82.59;102971.31;5052826;28;20545;-68
2023/12/18 01:12:37;;;;;;;10.17;8.50;;;;;;;5.83;83.34;102982.16;5053353;28;20200;-68
2023/12/18 01:15:04;;;;;;;12.33;8.40;;;;;;;5.84;82.86;102991.84;5053099;28;20187;-68
2023/12/18 01:17:30;;;;;;;10.27;8.20;;;;;;;5.79;83.06;103000.94;5052607;28;20202;-68
2023/12/18 01:20:03;;;;;;;11.87;8.53;;;;;;;5.75;83.11;103002.88;5052661;28;20265;-68
2023/12/18 01:22:30;;;;;;;11.13;8.40;;;;;;;5.73;83.43;103003.88;5052722;28;20195;-68
2023/12/18 01:24:56;;;;;;;18.83;9.10;;;;;;;5.68;83.72;102997.88;5053299;28;20184;-68
2023/12/18 01:27:22;;;;;;;14.33;8.43;;;;;;;5.58;83.45;103007.16;5056677;28;20234;-68
2023/12/18 01:29:49;;;;;;;14.57;8.83;;;;;;;5.53;83.53;103002.03;5056854;28;20593;-68
2023/12/18 01:32:15;;;;;;;17.97;9.13;;;;;;;5.57;83.74;103003.63;5056586;28;20233;-68
2023/12/18 01:34:42;;;;;;;17.50;9.47;;;;;;;5.71;83.02;103013.66;5057082;28;20183;-68
2023/12/18 01:37:08;;;;;;;9.43;8.57;;;;;;;5.69;83.46;103007.53;5056489;28;20187;-68
2023/12/18 01:39:36;;;;;;;9.77;8.90;;;;;;;5.76;82.79;103011.69;5056456;28;20617;-68
2023/12/18 01:42:03;;;;;;;8.87;8.07;;;;;;;5.78;82.91;103013.34;5055250;28;20182;-68
2023/12/18 01:44:29;;;;;;;10.33;8.30;;;;;;;5.79;82.47;103019.50;5056391;28;20195;-68
2023/12/18 01:46:57;;;;;;;13.40;9.20;;;;;;;5.81;82.41;103021.16;5056844;28;20247;-68
2023/12/18 01:49:24;;;;;;;9.30;8.27;;;;;;;5.79;82.50;103024.81;5056203;28;20203;-68
2023/12/18 01:51:52;;;;;;;8.40;7.57;;;;;;;5.77;82.89;103030.19;5056225;28;20179;-68
2023/12/18 01:54:21;;;;;;;8.90;8.20;;;;;;;5.75;83.02;103024.09;5056447;28;20199;-68
2023/12/18 01:56:51;;;;;;;13.30;8.87;;;;;;;5.74;83.19;103038.28;5056168;28;20195;-68
2023/12/18 01:59:20;;;;;;;9.00;8.03;;;;;;;5.79;82.53;103040.75;5055890;28;20270;-68
2023/12/18 02:01:47;;;;;;;9.73;7.73;;;;;;;5.75;82.22;103031.19;5056017;28;20184;-68
2023/12/18 02:04:14;;;;;;;12.97;8.50;;;;;;;5.78;83.11;103037.22;5056013;28;20194;-68
2023/12/18 02:06:42;;;;;;;9.53;8.53;;;;;;;5.76;82.22;103033.78;5055949;28;20286;-68
2023/12/18 02:09:09;;;;;;;10.20;9.03;;;;;;;5.73;82.43;103035.72;5055810;28;20212;-69
2023/12/18 02:11:35;;;;;;;8.97;8.20;;;;;;;5.78;82.01;103034.56;5056388;28;20221;-69
2023/12/18 02:14:02;;;;;;;11.03;7.70;;;;;;;5.80;82.32;103037.19;5056090;28;20655;-69
2023/12/18 02:16:28;;;;;;;11.47;8.17;;;;;;;5.76;82.47;103033.78;5055989;28;20195;-69
2023/12/18 02:18:55;;;;;;;9.30;8.20;;;;;;;5.70;82.89;103036.69;5055494;28;20211;-69
2023/12/18 02:21:22;;;;;;;12.27;9.50;;;;;;;5.70;82.55;103036.69;5055713;28;20659;-68
2023/12/18 02:23:50;;;;;;;17.07;10.37;;;;;;;5.63;83.33;103026.41;5055576;28;20183;-68
2023/12/18 02:26:16;;;;;;;10.97;9.67;;;;;;;5.68;83.20;103025.28;5055879;28;20525;-68
2023/12/18 02:28:44;;;;;;;15.80;10.17;;;;;;;5.62;83.08;103024.66;5055466;28;20245;-68
2023/12/18 02:31:14;;;;;;;18.73;9.80;;;;;;;5.60;83.51;103026.53;5055471;28;20730;-68
2023/12/18 02:33:41;;;;;;;17.57;11.40;;;;;;;5.66;83.21;103023.59;5055422;28;20196;-68
2023/12/18 02:36:08;;;;;;;24.80;12.43;;;;;;;5.62;83.04;103020.22;5055282;28;20195;-68
2023/12/18 02:38:35;;;;;;;17.87;11.50;;;;;;;5.60;83.06;103007.97;5054515;28;20188;-68
2023/12/18 02:41:01;;;;;;;29.03;11.60;;;;;;;5.55;83.38;103013.47;5055787;28;20713;-68
2023/12/18 02:43:28;;;;;;;20.13;11.27;;;;;;;5.48;83.93;103012.81;5055490;28;20313;-68
2023/12/18 02:45:54;;;;;;;19.50;10.40;;;;;;;5.52;83.55;103016.22;5055487;28;20245;-68
2023/12/18 02:48:20;;;;;;;19.00;12.17;;;;;;;5.51;83.35;103002.13;5055288;28;20249;-68
2023/12/18 02:50:47;;;;;;;21.80;12.40;;;;;;;5.52;83.16;103000.28;5055700;28;20207;-68
2023/12/18 02:53:15;;;;;;;24.63;14.10;;;;;;;5.49;83.70;103001.28;5055086;28;20191;-68
2023/12/18 02:55:41;;;;;;;23.30;14.03;;;;;;;5.58;83.74;102996.53;5055042;28;20180;-68
2023/12/18 02:58:08;;;;;;;21.83;13.73;;;;;;;5.68;83.16;103003.19;5054950;28;20187;-68
2023/12/18 03:00:34;;;;;;;26.23;14.23;;;;;;;5.72;82.76;102999.47;5054802;28;20247;-68
2023/12/18 03:03:01;;;;;;;25.17;12.77;;;;;;;5.68;83.15;103006.72;5055155;28;20188;-68
2023/12/18 03:05:27;;;;;;;16.37;12.60;;;;;;;5.63;83.53;103002.50;5054873;28;20187;-68
2023/12/18 03:07:54;;;;;;;19.27;12.13;;;;;;;5.57;83.64;103000.97;5054798;28;20262;-68
2023/12/18 03:10:20;;;;;;;23.87;13.23;;;;;;;5.60;83.80;103000.84;5055254;28;20209;-68
2023/12/18 03:12:47;;;;;;;30.70;12.70;;;;;;;5.63;82.77;102997.22;5054968;28;20187;-68
2023/12/18 03:15:13;;;;;;;26.90;12.20;;;;;;;5.58;83.17;103001.84;5054645;28;20191;-68
2023/12/18 03:17:40;;;;;;;36.40;13.57;;;;;;;5.57;84.14;102987.72;5054649;28;20187;-68
2023/12/18 03:20:07;;;;;;;23.70;12.37;;;;;;;5.57;83.67;102998.31;5054468;28;20260;-68
2023/12/18 03:22:33;;;;;;;18.17;12.20;;;;;;;5.58;83.64;102988.56;5054530;28;20259;-68
2023/12/18 03:25:00;;;;;;;22.60;12.57;;;;;;;5.58;84.04;102983.25;5054756;28;20314;-68
2023/12/18 03:27:26;;;;;;;20.23;12.13;;;;;;;5.72;83.78;102979.13;5054429;28;20557;-68
2023/12/18 03:29:53;;;;;;;21.27;12.80;;;;;;;5.75;84.14;102978.97;5054344;28;20210;-68
2023/12/18 03:32:19;;;;;;;23.47;13.97;;;;;;;5.77;84.23;102977.09;5054330;28;20239;-68
2023/12/18 03:34:45;;;;;;;21.43;13.57;;;;;;;5.81;83.73;102978.69;5054280;28;20253;-68
2023/12/18 03:37:12;;;;;;;18.67;13.20;;;;;;;5.64;84.53;102975.06;5054220;28;20179;-68
2023/12/18 03:39:38;;;;;;;21.77;12.80;;;;;;;5.54;84.29;102966.63;5054625;28;20211;-69
2023/12/18 03:42:05;;;;;;;18.73;12.50;;;;;;;5.46;84.79;102966.09;5054169;28;20187;-68
2023/12/18 03:44:31;;;;;;;23.97;14.20;;;;;;;5.50;84.83;102968.53;5054342;28;20184;-68
2023/12/18 03:46:58;;;;;;;30.33;14.57;;;;;;;5.62;84.35;102969.81;5054058;28;20184;-68
2023/12/18 03:49:24;;;;;;;25.67;15.53;;;;;;;5.66;84.50;102954.63;5054000;28;20616;-68
2023/12/18 03:51:52;;;;;;;33.70;15.27;;;;;;;5.71;84.31;102956.16;5053972;28;20195;-68
2023/12/18 03:54:18;;;;;;;24.97;14.87;;;;;;;5.73;84.04;102943.66;5054176;28;20225;-68
2023/12/18 03:56:45;;;;;;;25.63;14.30;;;;;;;5.77;83.67;102947.91;5053873;28;20187;-67
2023/12/18 03:59:11;;;;;;;27.47;14.80;;;;;;;5.83;84.02;102944.13;5053646;28;20216;-68
2023/12/18 04:01:38;;;;;;;25.73;14.37;;;;;;;5.79;83.51;102945.19;5054305;28;20611;-68
2023/12/18 04:04:04;;;;;;;23.27;14.20;;;;;;;5.67;83.73;102932.47;5053721;28;20196;-68
2023/12/18 04:06:31;;;;;;;30.17;13.03;;;;;;;5.79;83.15;102939.88;5053955;28;20556;-68
2023/12/18 04:08:57;;;;;;;26.23;14.90;;;;;;;5.70;83.79;102935.84;5054044;28;20225;-68
2023/12/18 04:11:24;;;;;;;25.57;14.63;;;;;;;5.58;83.67;102940.81;5053660;28;20187;-68
2023/12/18 04:13:52;;;;;;;30.10;15.87;;;;;;;5.64;84.17;102948.53;5053865;28;20585;-68
2023/12/18 04:16:18;;;;;;;22.00;14.20;;;;;;;5.55;84.60;102948.91;5053613;28;20211;-68
2023/12/18 04:18:44;;;;;;;24.30;14.87;;;;;;;5.57;84.25;102947.03;5053308;28;20215;-68
2023/12/18 04:21:11;;;;;;;29.63;14.50;;;;;;;5.63;84.43;102960.94;5053621;28;20246;-68
2023/12/18 04:23:38;;;;;;;24.00;14.13;;;;;;;5.48;83.67;102954.47;5053425;28;20206;-68
2023/12/18 04:26:04;;;;;;;23.50;14.77;;;;;;;5.36;84.74;102959.41;5053616;28;20198;-68
2023/12/18 04:28:30;;;;;;;24.50;15.43;;;;;;;5.32;85.54;102961.34;5053534;28;20659;-68
2023/12/18 04:30:57;;;;;;;29.50;15.50;;;;;;;5.23;85.78;102958.19;5053823;28;20187;-68
2023/12/18 04:33:23;;;;;;;23.90;15.07;;;;;;;5.23;86.28;102961.72;5053787;28;20644;-68
2023/12/18 04:35:50;;;;;;;26.43;15.87;;;;;;;5.17;86.28;102955.81;5053275;28;20603;-68
2023/12/18 04:38:16;;;;;;;23.83;15.63;;;;;;;5.18;86.01;102973.47;5053225;28;20187;-68
2023/12/18 04:40:43;;;;;;;25.10;15.53;;;;;;;5.23;86.35;102961.72;5053287;28;20591;-68
2023/12/18 04:43:09;;;;;;;21.77;14.63;;;;;;;5.21;86.67;102974.19;5053127;28;20191;-68
2023/12/18 04:45:36;;;;;;;24.80;14.83;;;;;;;5.17;86.35;102967.28;5053129;28;20193;-68
2023/12/18 04:48:02;;;;;;;24.87;15.47;;;;;;;5.14;86.79;102974.47;5053076;28;20225;-68
2023/12/18 04:50:29;;;;;;;27.07;15.90;;;;;;;5.14;86.39;102978.00;5053008;28;20210;-68
2023/12/18 04:52:55;;;;;;;27.20;15.60;;;;;;;5.15;86.35;102979.72;5053026;28;20195;-68
2023/12/18 04:55:22;;;;;;;32.40;15.97;;;;;;;5.11;86.41;102974.59;5053039;28;20184;-68
2023/12/18 04:57:48;;;;;;;21.17;14.70;;;;;;;5.09;86.81;102980.00;5053291;28;20183;-68
2023/12/18 05:00:15;;;;;;;30.27;16.60;;;;;;;5.04;87.08;102966.91;5054212;28;20210;-68
2023/12/18 05:02:41;;;;;;;32.60;16.07;;;;;;;5.05;87.43;102976.56;5057352;28;20187;-68
2023/12/18 05:05:08;;;;;;;32.67;16.60;;;;;;;5.14;87.24;102964.72;5057055;28;20191;-68
2023/12/18 05:07:35;;;;;;;39.83;16.83;;;;;;;5.17;86.99;102955.81;5057012;28;20188;-68
2023/12/18 05:10:02;;;;;;;41.10;18.00;;;;;;;5.21;87.13;102962.72;5057032;28;20207;-68
2023/12/18 05:12:28;;;;;;;39.60;15.93;;;;;;;5.16;87.01;102957.59;5057009;28;20188;-68
2023/12/18 05:14:55;;;;;;;27.00;16.10;;;;;;;5.27;87.23;102963.31;5056951;28;20187;-68
2023/12/18 05:17:21;;;;;;;23.37;15.87;;;;;;;5.23;86.89;102967.03;5056933;28;20725;-67
2023/12/18 05:19:47;;;;;;;34.80;17.80;;;;;;;5.36;87.37;102962.06;5057018;28;20786;-67
2023/12/18 05:22:14;;;;;;;30.13;17.70;;;;;;;5.29;87.49;102956.16;5057045;28;20195;-67
2023/12/18 05:24:40;;;;;;;26.13;16.50;;;;;;;5.40;86.84;102961.00;5057026;28;20187;-67
2023/12/18 05:27:07;;;;;;;29.77;17.90;;;;;;;5.46;86.90;102948.38;5056997;28;20203;-67
2023/12/18 05:29:34;;;;;;;23.67;16.33;;;;;;;5.52;86.96;102960.50;5056863;28;20202;-67
2023/12/18 05:32:00;;;;;;;25.73;16.37;;;;;;;5.47;86.71;102958.03;5056622;28;20195;-67
2023/12/18 05:34:26;;;;;;;24.43;16.87;;;;;;;5.43;86.80;102953.78;5056833;28;20230;-67
2023/12/18 05:36:56;;;;;;;36.97;17.70;;;;;;;5.43;86.89;102951.13;5056744;28;20270;-67
2023/12/18 05:39:23;;;;;;;32.43;17.77;;;;;;;5.45;87.79;102946.66;5056410;28;20539;-68
2023/12/18 05:41:50;;;;;;;36.50;17.10;;;;;;;5.36;87.30;102947.03;5056411;28;20191;-68
2023/12/18 05:44:16;;;;;;;27.97;16.67;;;;;;;5.46;87.14;102939.56;5056609;28;20190;-68
2023/12/18 05:46:43;;;;;;;34.03;16.73;;;;;;;5.42;87.42;102938.81;5057097;28;20217;-68
2023/12/18 05:49:09;;;;;;;27.23;16.77;;;;;;;5.41;87.48;102938.88;5056462;28;20212;-68
2023/12/18 05:51:36;;;;;;;29.93;15.80;;;;;;;5.48;86.98;102938.53;5056498;28;20175;-68
2023/12/18 05:54:02;;;;;;;30.37;16.40;;;;;;;5.49;87.84;102945.59;5056137;28;20198;-68
2023/12/18 05:56:29;;;;;;;33.87;17.93;;;;;;;5.46;87.79;102943.06;5056695;28;20199;-68
2023/12/18 05:58:57;;;;;;;29.10;17.97;;;;;;;5.42;87.66;102937.97;5056089;28;20215;-68
2023/12/18 06:01:23;;;;;;;36.40;17.47;;;;;;;5.45;88.26;102938.69;5055916;28;20666;-68
2023/12/18 06:03:51;;;;;;;29.70;16.20;;;;;;;5.44;88.09;102944.03;5056138;28;20253;-68
2023/12/18 06:06:17;;;;;;;28.17;16.27;;;;;;;5.48;87.57;102938.53;5056244;28;20529;-68
2023/12/18 06:08:44;;;;;;;28.00;17.53;;;;;;;5.52;87.36;102940.13;5055881;28;20218;-68
2023/12/18 06:11:11;;;;;;;27.43;17.30;;;;;;;5.52;87.78;102953.41;5055817;28;20191;-68
2023/12/18 06:13:39;;;;;;;30.63;16.67;;;;;;;5.53;87.20;102943.66;5055816;28;20185;-68
2023/12/18 06:16:05;;;;;;;28.90;16.80;;;;;;;5.48;87.79;102941.19;5056902;28;20571;-68
2023/12/18 06:18:32;;;;;;;25.00;15.67;;;;;;;5.45;87.60;102933.38;5055573;28;20195;-68
2023/12/18 06:21:03;;;;;;;27.90;16.67;;;;;;;5.38;87.66;102939.00;5055649;28;20203;-68
2023/12/18 06:23:30;;;;;;;33.10;17.63;;;;;;;5.35;87.69;102939.13;5055699;28;20211;-68
2023/12/18 06:25:57;;;;;;;35.67;17.60;;;;;;;5.36;88.02;102939.06;5055966;28;20199;-68
2023/12/18 06:28:27;;;;;;;32.70;17.73;;;;;;;5.33;88.57;102944.50;5056076;28;20262;-68
2023/12/18 06:30:54;;;;;;;31.20;16.70;;;;;;;5.33;88.50;102947.16;5056051;28;20176;-68
2023/12/18 06:33:20;;;;;;;34.50;17.87;;;;;;;5.30;87.95;102947.31;5055419;28;20203;-68
2023/12/18 06:35:47;;;;;;;35.87;17.40;;;;;;;5.27;88.42;102939.44;5055675;28;20684;-67
2023/12/18 06:38:14;;;;;;;28.07;17.03;;;;;;;5.27;88.07;102944.75;5055328;28;20777;-68
2023/12/18 06:40:40;;;;;;;30.27;18.73;;;;;;;5.19;87.73;102928.28;5055116;28;20215;-68
2023/12/18 06:43:06;;;;;;;28.53;16.97;;;;;;;5.23;87.82;102935.19;5055233;28;20192;-68
2023/12/18 06:45:33;;;;;;;35.10;17.67;;;;;;;5.20;87.21;102935.34;5055201;28;20249;-68
2023/12/18 06:47:59;;;;;;;37.80;17.27;;;;;;;5.24;86.77;102936.06;5055688;28;20185;-68
2023/12/18 06:50:26;;;;;;;44.93;19.13;;;;;;;5.07;87.73;102932.31;5055000;28;20718;-68
2023/12/18 06:52:53;;;;;;;33.00;17.40;;;;;;;5.24;86.65;102936.06;5055057;28;20183;-68
2023/12/18 06:55:21;;;;;;;30.00;17.10;;;;;;;5.13;88.16;102928.56;5055001;28;20196;-68
2023/12/18 06:57:47;;;;;;;35.43;18.23;;;;;;;5.21;87.72;102939.72;5055043;28;20583;-68
2023/12/18 07:00:14;;;;;;;33.57;17.97;;;;;;;5.18;88.23;102937.16;5054799;28;20306;-68
2023/12/18 07:02:41;;;;;;;36.70;19.37;;;;;;;5.01;88.84;102945.81;5054940;28;20183;-68
2023/12/18 07:05:08;;;;;;;37.67;18.87;;;;;;;5.12;88.70;102939.22;5054847;28;20192;-68
2023/12/18 07:07:34;;;;;;;28.87;16.90;;;;;;;5.13;88.46;102939.16;5054832;28;20703;-68
2023/12/18 07:10:01;;;;;;;29.70;17.30;;;;;;;5.15;88.83;102939.97;5054809;28;20216;-68
2023/12/18 07:12:27;;;;;;;38.40;18.57;;;;;;;4.94;88.99;102933.75;5055245;28;20555;-68
2023/12/18 07:14:54;;;;;;;35.87;18.63;;;;;;;5.06;89.27;102948.28;5054608;28;20195;-68
2023/12/18 07:17:20;;;;;;;34.80;17.83;;;;;;;4.98;89.50;102945.06;5054463;28;20252;-68
2023/12/18 07:19:46;;;;;;;31.87;17.17;;;;;;;5.05;88.83;102950.06;5054834;28;20623;-68
2023/12/18 07:22:13;;;;;;;39.90;17.93;;;;;;;5.05;89.12;102946.53;5054429;28;20302;-68
2023/12/18 07:24:39;;;;;;;31.20;17.07;;;;;;;5.02;89.52;102958.16;5054331;28;20238;-68
2023/12/18 07:27:06;;;;;;;35.00;18.03;;;;;;;5.07;89.21;102964.13;5054896;28;20198;-68
2023/12/18 07:29:32;;;;;;;32.90;18.70;;;;;;;4.99;90.14;102963.56;5054297;28;20245;-68
2023/12/18 07:31:59;;;;;;;35.13;18.17;;;;;;;5.12;89.42;102961.28;5054367;28;20237;-68
2023/12/18 07:34:25;;;;;;;34.87;19.10;;;;;;;5.06;89.25;102962.41;5054307;28;20187;-68
2023/12/18 07:36:52;;;;;;;37.70;19.43;;;;;;;4.88;89.92;102957.00;5054788;28;20226;-68
2023/12/18 07:39:19;;;;;;;38.63;18.97;;;;;;;5.10;88.90;102957.84;5054115;28;20210;-68
2023/12/18 07:41:46;;;;;;;34.03;18.03;;;;;;;4.97;89.40;102969.84;5054094;28;20262;-68
2023/12/18 07:44:12;;;;;;;33.67;18.43;;;;;;;5.00;89.75;102964.44;5054145;28;20188;-68
2023/12/18 07:46:39;;;;;;;26.23;16.87;;;;;;;4.88;90.08;102960.47;5054060;28;20187;-68
2023/12/18 07:49:06;;;;;;;34.40;18.23;;;;;;;4.86;90.41;102958.81;5054493;28;20203;-68
2023/12/18 07:51:34;;;;;;;33.13;17.93;;;;;;;5.09;89.89;102968.53;5053976;28;20648;-68
2023/12/18 07:54:00;;;;;;;33.73;17.43;;;;;;;4.99;89.63;102955.63;5053937;28;20215;-68
2023/12/18 07:56:27;;;;;;;31.63;17.57;;;;;;;4.84;90.41;102958.00;5053904;28;20180;-68
2023/12/18 07:58:53;;;;;;;40.97;18.90;;;;;;;5.01;89.70;102964.38;5053719;28;20265;-68
2023/12/18 08:01:20;;;;;;;39.67;18.40;;;;;;;4.97;90.17;102957.47;5053737;28;20207;-68
2023/12/18 08:03:47;;;;;;;30.40;18.17;;;;;;;5.03;89.80;102964.31;5054028;28;20187;-68
2023/12/18 08:06:14;;;;;;;37.33;18.20;;;;;;;4.95;90.09;102969.06;5053724;28;20585;-68
2023/12/18 08:08:40;;;;;;;29.60;16.90;;;;;;;4.93;89.61;102970.91;5053600;28;20219;-68
2023/12/18 08:11:07;;;;;;;26.77;17.00;;;;;;;5.11;89.79;102980.78;5053893;28;20261;-68
2023/12/18 08:13:38;;;;;;;34.07;17.57;;;;;;;4.95;89.66;102964.63;5053565;28;20659;-68
2023/12/18 08:16:06;;;;;;;35.90;17.50;;;;;;;4.98;89.58;102971.59;5054100;28;20191;-68
2023/12/18 08:18:32;;;;;;;37.93;17.87;;;;;;;4.88;90.00;102959.63;5053397;28;20598;-68
2023/12/18 08:20:59;;;;;;;26.80;16.73;;;;;;;5.03;89.73;102973.13;5053389;28;20237;-68
2023/12/18 08:23:26;;;;;;;29.27;16.60;;;;;;;4.90;90.39;102958.63;5054007;28;20253;-68
2023/12/18 08:25:53;;;;;;;29.77;16.33;;;;;;;4.97;90.08;102956.59;5053317;28;20184;-68
2023/12/18 08:28:19;;;;;;;34.37;16.37;;;;;;;4.81;90.71;102959.00;5053366;28;20237;-68
2023/12/18 08:30:46;;;;;;;36.57;17.43;;;;;;;4.75;90.77;102947.78;5053317;28;20668;-68
2023/12/18 08:33:12;;;;;;;33.23;17.47;;;;;;;4.74;90.89;102951.34;5053522;28;20195;-68
2023/12/18 08:35:39;;;;;;;30.43;16.43;;;;;;;4.75;91.01;102942.50;5052404;28;20187;-67
2023/12/18 08:38:05;;;;;;;32.10;17.20;;;;;;;4.82;90.12;102946.63;5053236;28;20237;-67
2023/12/18 08:40:31;;;;;;;32.20;16.40;;;;;;;4.97;89.97;102953.94;5053383;28;20628;-68
2023/12/18 08:42:58;;;;;;;37.27;16.23;;;;;;;4.81;90.31;102942.22;5053673;28;20199;-68
2023/12/18 08:45:25;;;;;;;33.83;16.80;;;;;;;4.91;90.61;102939.16;5053154;28;20241;-71
2023/12/18 08:47:51;;;;;;;28.50;16.07;;;;;;;4.94;90.14;102932.88;5053129;28;20554;-70
2023/12/18 08:50:18;;;;;;;31.47;17.10;;;;;;;4.89;90.69;102927.75;5053129;28;20245;-70
2023/12/18 08:52:44;;;;;;;36.53;17.57;;;;;;;4.85;91.09;102930.59;5053100;28;20185;-71
2023/12/18 08:55:11;;;;;;;33.17;16.67;;;;;;;4.98;90.86;102927.38;5053092;28;20558;-71
2023/12/18 08:57:37;;;;;;;30.17;16.60;;;;;;;5.00;90.75;102924.69;5053010;28;20290;-71
2023/12/18 09:00:06;;;;;;;30.20;16.37;;;;;;;5.01;90.39;102929.03;5052944;28;20222;-70
2023/12/18 09:02:32;;;;;;;31.27;16.47;;;;;;;5.05;90.00;102925.34;5052867;28;20210;-70
2023/12/18 09:04:59;;;;;;;31.93;16.53;;;;;;;5.06;90.25;102925.28;5052921;28;20275;-68
2023/12/18 09:07:25;;;;;;;32.43;17.10;;;;;;;5.13;90.36;102940.94;5053521;28;20172;-68
2023/12/18 09:09:52;;;;;;;33.53;17.90;;;;;;;5.05;90.51;102930.63;5053055;28;20632;-70
2023/12/18 09:12:18;;;;;;;38.50;18.80;;;;;;;5.07;90.43;102927.03;5053138;28;20185;-70
2023/12/18 09:14:45;;;;;;;33.77;17.90;;;;;;;5.02;89.84;102934.28;5052896;28;20183;-70
2023/12/18 09:17:11;;;;;;;31.33;18.50;;;;;;;5.12;89.72;102937.44;5052710;28;20271;-70
2023/12/18 09:19:37;;;;;;;29.20;17.77;;;;;;;5.10;90.46;102925.16;5052870;28;20227;-70
2023/12/18 09:22:04;;;;;;;37.27;18.23;;;;;;;4.94;90.73;102928.44;5053312;28;20674;-70
2023/12/18 09:24:31;;;;;;;31.13;17.00;;;;;;;5.06;90.11;102924.41;5052753;28;20187;-70
2023/12/18 09:26:58;;;;;;;33.23;18.50;;;;;;;5.23;89.15;102927.25;5052955;28;20194;-70
2023/12/18 09:29:24;;;;;;;31.43;18.17;;;;;;;5.13;89.03;102925.91;5052622;28;20697;-70
2023/12/18 09:31:51;;;;;;;30.43;18.80;;;;;;;5.17;89.50;102934.59;5052703;28;20172;-70
2023/12/18 09:34:17;;;;;;;35.27;19.07;;;;;;;5.08;89.74;102919.94;5052643;28;20244;-70
2023/12/18 09:36:44;;;;;;;34.73;19.10;;;;;;;5.05;89.83;102915.59;5052871;28;20178;-71
2023/12/18 09:39:11;;;;;;;39.57;18.87;;;;;;;5.03;89.51;102921.91;5053094;28;20211;-70
2023/12/18 09:41:37;;;;;;;34.00;17.93;;;;;;;5.04;90.27;102916.53;5053062;28;20207;-70
2023/12/18 09:44:04;;;;;;;44.33;17.83;;;;;;;5.06;90.62;102916.47;5052570;28;20241;-71
2023/12/18 09:46:31;;;;;;;35.97;18.00;;;;;;;4.98;90.35;102907.97;5054206;28;20189;-71
2023/12/18 09:48:57;;;;;;;29.30;17.43;;;;;;;5.29;90.04;102912.88;5056659;28;20215;-70
2023/12/18 09:51:25;;;;;;;34.90;17.33;;;;;;;5.17;90.35;102913.38;5056335;28;20183;-70
2023/12/18 09:53:53;;;;;;;25.93;16.63;;;;;;;5.10;89.96;102907.47;5056241;28;20192;-70
2023/12/18 09:56:20;;;;;;;33.23;16.80;;;;;;;5.17;90.14;102914.25;5056993;28;20197;-70
2023/12/18 09:58:48;;;;;;;32.13;17.33;;;;;;;5.29;90.16;102916.41;5055988;28;20207;-70
2023/12/18 10:01:15;;;;;;;25.40;16.10;;;;;;;5.46;89.67;102918.34;5055992;28;20208;-70
2023/12/18 10:03:42;;;;;;;29.03;16.13;;;;;;;5.45;89.67;102904.19;5056329;28;20207;-70
2023/12/18 10:06:09;;;;;;;25.27;17.40;;;;;;;5.50;89.73;102915.47;5055992;28;20187;-70
2023/12/18 10:08:35;;;;;;;28.47;16.40;;;;;;;5.47;89.55;102909.44;5055858;28;20195;-70
2023/12/18 10:11:03;;;;;;;41.43;18.67;;;;;;;5.38;90.09;102904.53;5055910;28;20179;-70
2023/12/18 10:13:29;;;;;;;30.50;17.43;;;;;;;5.50;90.13;102918.13;5055850;28;20183;-70
2023/12/18 10:15:57;;;;;;;29.30;16.73;;;;;;;5.73;89.22;102918.94;5056341;28;20591;-70
2023/12/18 10:18:23;;;;;;;29.40;17.80;;;;;;;5.66;89.15;102917.47;5055534;28;20204;-70
2023/12/18 10:20:51;;;;;;;28.13;16.80;;;;;;;5.57;90.71;102917.84;5055644;28;20275;-70
2023/12/18 10:23:17;;;;;;;39.73;19.37;;;;;;;5.69;90.22;102925.28;5055910;28;20191;-70
2023/12/18 10:25:44;;;;;;;26.43;16.17;;;;;;;5.65;90.63;102921.03;5056210;28;20184;-70
2023/12/18 10:28:12;;;;;;;33.60;18.47;;;;;;;5.71;90.35;102908.38;5055923;28;20175;-70
2023/12/18 10:30:39;;;;;;;37.90;17.43;;;;;;;5.67;90.39;102903.28;5055492;28;20683;-70
2023/12/18 10:33:09;;;;;;;30.23;16.07;;;;;;;5.79;89.93;102903.59;5055470;28;20656;-70
2023/12/18 10:35:36;;;;;;;29.27;16.97;;;;;;;5.80;90.38;102899.16;5055487;28;20539;-70
2023/12/18 10:38:04;;;;;;;27.80;16.70;;;;;;;5.71;90.51;102907.53;5055435;28;20183;-70
2023/12/18 10:40:31;;;;;;;33.17;17.30;;;;;;;5.74;90.71;102892.31;5055334;28;20618;-70
2023/12/18 10:43:19;;;;;;;30.63;17.77;;;;;;;5.75;90.27;102886.09;5055170;28;20209;-71
2023/12/18 10:45:46;;;;;;;24.10;15.93;;;;;;;5.79;90.44;102886.81;5055844;28;20194;-70
2023/12/18 10:48:15;;;;;;;37.00;16.83;;;;;;;5.81;90.30;102879.66;5055186;28;20187;-70
2023/12/18 10:50:42;;;;;;;27.20;16.20;;;;;;;5.92;89.90;102880.94;5055114;28;20285;-70
2023/12/18 10:53:11;;;;;;;28.27;15.50;;;;;;;5.92;89.93;102880.94;5055500;28;20559;-71
2023/12/18 10:55:38;;;;;;;29.87;17.13;;;;;;;5.81;90.85;102869.03;5055040;28;20678;-71
2023/12/18 10:58:05;;;;;;;25.33;16.57;;;;;;;5.77;90.96;102870.09;5054124;28;20184;-71
2023/12/18 11:00:33;;;;;;;23.73;15.47;;;;;;;5.75;90.19;102856.03;5054954;28;20721;-71
2023/12/18 11:03:01;;;;;;;26.37;16.13;;;;;;;5.59;90.04;102855.84;5054909;28;20257;-71
2023/12/18 11:05:29;;;;;;;26.87;17.17;;;;;;;5.79;90.16;102858.47;5055127;28;20197;-71
2023/12/18 11:07:56;;;;;;;20.63;14.77;;;;;;;5.63;89.84;102845.97;5054823;28;20269;-71
2023/12/18 11:10:25;;;;;;;28.47;16.40;;;;;;;5.67;90.05;102839.59;5054757;28;20217;-70
2023/12/18 11:13:01;;;;;;;36.70;16.47;;;;;;;5.64;89.84;102834.44;5054781;28;20237;-70
2023/12/18 11:15:56;;;;;;;30.67;17.73;;;;;;;5.65;90.16;102831.69;5054753;28;20201;-70
2023/12/18 11:18:34;;;;;;;22.17;15.87;;;;;;;5.65;89.90;102833.47;5054556;28;20748;-70